createdAt,value
2022-11-18T00:03:27.794Z,97489.59
2022-11-18T00:09:29.691Z,97490.63
2022-11-18T00:15:31.951Z,97490.75
2022-11-18T00:21:33.900Z,97505.13
2022-11-18T00:27:35.779Z,97507.56
2022-11-18T00:33:38.264Z,97505.84
2022-11-18T00:39:40.137Z,97514.56
2022-11-18T00:45:43.848Z,97508.41
2022-11-18T00:51:45.819Z,97515.75
2022-11-18T00:57:47.703Z,97515.81
2022-11-18T01:03:49.620Z,97520.41
2022-11-18T01:09:51.518Z,97514.31
2022-11-18T01:15:58.427Z,97518.50
2022-11-18T01:22:03.119Z,97517.22
2022-11-18T01:28:05.773Z,97520.38
2022-11-18T01:34:07.655Z,97519.09
2022-11-18T01:40:11.101Z,97523.50
2022-11-18T01:46:12.983Z,97526.88
2022-11-18T01:52:15.417Z,97533.84
2022-11-18T01:58:52.218Z,97535.00
2022-11-18T02:04:56.518Z,97538.53
2022-11-18T02:10:58.409Z,97544.25
2022-11-18T02:17:33.936Z,97543.09
2022-11-18T02:23:57.046Z,97548.81
2022-11-18T02:30:10.379Z,97547.44
2022-11-18T02:36:28.569Z,97554.06
2022-11-18T02:42:33.523Z,97553.25
2022-11-18T02:48:41.226Z,97571.28
2022-11-18T02:54:47.285Z,97583.81
2022-11-18T03:01:01.483Z,97580.41
2022-11-18T03:07:25.981Z,97579.34
2022-11-18T03:13:39.708Z,97586.13
2022-11-18T03:20:15.260Z,97588.19
2022-11-18T03:26:29.674Z,97591.28
2022-11-18T03:32:38.285Z,97587.66
2022-11-18T03:38:50.671Z,97600.75
2022-11-18T03:45:09.677Z,97611.13
2022-11-18T03:51:18.910Z,97615.44
2022-11-18T03:57:33.030Z,97617.13
2022-11-18T04:03:35.208Z,97624.88
2022-11-18T04:10:08.261Z,97630.06
2022-11-18T04:16:11.513Z,97627.25
2022-11-18T04:22:13.857Z,97637.31
2022-11-18T04:28:15.776Z,97645.03
2022-11-18T04:34:17.735Z,97639.47
2022-11-18T04:40:19.699Z,97660.84
2022-11-18T04:46:21.586Z,97657.41
2022-11-18T04:52:23.509Z,97658.75
2022-11-18T04:58:25.412Z,97667.78
2022-11-18T05:04:31.537Z,97670.91
2022-11-18T05:10:33.450Z,97673.78
2022-11-18T05:16:35.343Z,97670.91
2022-11-18T05:22:37.290Z,97676.75
2022-11-18T05:28:39.382Z,97686.81
2022-11-18T05:34:42.473Z,97698.03
2022-11-18T05:40:44.344Z,97709.84
2022-11-18T05:46:46.232Z,97707.59
2022-11-18T05:52:48.107Z,97721.66
2022-11-18T05:58:50.173Z,97726.38
2022-11-18T06:05:02.761Z,97728.81
2022-11-18T06:11:07.742Z,97747.22
2022-11-18T06:17:18.862Z,97747.31
2022-11-18T06:23:21.330Z,97750.53
2022-11-18T06:29:27.665Z,97758.06
2022-11-18T06:35:30.123Z,97763.00
2022-11-18T06:41:33.102Z,97769.88
2022-11-18T06:47:35.003Z,97779.69
2022-11-18T06:53:37.110Z,97787.31
2022-11-18T06:59:39.006Z,97809.63
2022-11-18T07:05:40.942Z,97805.50
2022-11-18T07:11:42.883Z,97815.91
2022-11-18T07:17:44.792Z,97827.09
2022-11-18T07:23:47.542Z,97827.72
2022-11-18T07:29:49.415Z,97838.44
2022-11-18T07:35:51.351Z,97836.28
2022-11-18T07:41:53.250Z,97845.56
2022-11-18T07:47:55.150Z,97854.56
2022-11-18T07:53:57.061Z,97867.47
2022-11-18T07:59:58.993Z,97864.59
2022-11-18T08:06:02.354Z,97865.19
2022-11-18T08:12:04.652Z,97878.72
2022-11-18T08:18:10.951Z,97879.03
2022-11-18T08:24:15.369Z,97892.53
2022-11-18T08:30:17.906Z,97889.53
2022-11-18T08:36:23.789Z,97897.19
2022-11-18T08:42:29.903Z,97896.94
2022-11-18T08:48:35.006Z,97908.16
2022-11-18T08:54:37.047Z,97919.25
2022-11-18T09:00:38.943Z,97927.50
2022-11-18T09:06:40.926Z,97921.31
2022-11-18T09:12:42.847Z,97922.41
2022-11-18T09:18:44.729Z,97938.06
2022-11-18T09:24:46.657Z,97946.47
2022-11-18T09:30:48.525Z,97948.56
2022-11-18T09:36:50.704Z,97955.91
2022-11-18T09:43:24.291Z,97961.22
2022-11-18T09:49:36.242Z,97975.69
2022-11-18T09:55:40.955Z,97970.47
2022-11-18T10:01:43.735Z,97986.69
2022-11-18T10:08:15.771Z,97993.34
2022-11-18T10:14:42.232Z,98012.19
2022-11-18T10:21:24.077Z,98015.28
2022-11-18T10:27:37.532Z,98023.09
2022-11-18T10:33:39.806Z,98022.25
2022-11-18T10:39:57.003Z,98027.97
2022-11-18T10:46:28.592Z,98040.25
2022-11-18T10:52:30.880Z,98046.81
2022-11-18T10:58:37.844Z,98044.38
2022-11-18T11:04:41.372Z,98043.78
2022-11-18T11:10:58.594Z,98048.91
2022-11-18T11:17:43.223Z,98054.63
2022-11-18T11:23:46.418Z,98051.34
2022-11-18T11:30:07.811Z,98056.03
2022-11-18T11:36:20.480Z,98066.31
2022-11-18T11:43:10.451Z,98071.81
2022-11-18T11:49:24.943Z,98084.72
2022-11-18T11:55:42.243Z,98087.13
2022-11-18T12:01:56.575Z,98095.38
2022-11-18T12:08:25.808Z,98107.47
2022-11-18T12:14:42.659Z,98098.25
2022-11-18T12:20:52.163Z,98103.94
2022-11-18T12:26:54.424Z,98105.72
2022-11-18T12:32:57.767Z,98114.97
2022-11-18T12:39:25.603Z,98119.47
2022-11-18T12:45:58.391Z,98123.75
2022-11-18T12:52:02.338Z,98129.50
2022-11-18T12:58:20.057Z,98140.50
2022-11-18T13:04:21.935Z,98149.25
2022-11-18T13:10:29.184Z,98142.09
2022-11-18T13:16:49.991Z,98150.50
2022-11-18T13:23:17.172Z,98165.50
2022-11-18T13:29:38.827Z,98158.63
2022-11-18T13:35:41.424Z,98157.44
2022-11-18T13:41:43.338Z,98167.13
2022-11-18T13:47:55.193Z,98169.38
2022-11-18T13:53:57.327Z,98180.53
2022-11-18T14:00:07.057Z,98191.03
2022-11-18T14:06:09.786Z,98192.84
2022-11-18T14:12:14.579Z,98205.75
2022-11-18T14:18:35.629Z,98210.47
2022-11-18T14:24:37.678Z,98216.19
2022-11-18T14:31:16.501Z,98222.88
2022-11-18T14:37:18.754Z,98227.19
2022-11-18T14:43:20.718Z,98233.41
2022-11-18T14:49:25.342Z,98239.03
2022-11-18T14:55:27.280Z,98249.91
2022-11-18T15:01:31.051Z,98257.94
2022-11-18T15:07:33.199Z,98259.66
2022-11-18T15:13:35.279Z,98275.22
2022-11-18T15:19:37.399Z,98278.34
2022-11-18T15:25:39.689Z,98283.00
2022-11-18T15:31:41.571Z,98297.00
2022-11-18T15:37:43.427Z,98296.75
2022-11-18T15:43:46.267Z,98307.44
2022-11-18T15:49:48.245Z,98301.38
2022-11-18T15:55:50.133Z,98311.13
2022-11-18T16:01:55.959Z,98320.28
2022-11-18T16:07:57.844Z,98332.16
2022-11-18T16:14:05.338Z,98340.75
2022-11-18T16:20:07.740Z,98354.16
2022-11-18T16:26:09.621Z,98358.41
2022-11-18T16:32:14.243Z,98361.50
2022-11-18T16:38:16.206Z,98374.84
2022-11-18T16:44:19.116Z,98386.84
2022-11-18T16:50:21.035Z,98400.19
2022-11-18T16:56:29.248Z,98412.78
2022-11-18T17:02:31.591Z,98414.84
2022-11-18T17:08:36.056Z,98426.97
2022-11-18T17:14:39.922Z,98428.13
2022-11-18T17:20:41.823Z,98435.13
2022-11-18T17:26:43.826Z,98451.78
2022-11-18T17:32:45.714Z,98454.78
2022-11-18T17:38:51.671Z,98458.56
2022-11-18T17:44:53.603Z,98463.66
2022-11-18T17:51:03.727Z,98477.94
2022-11-18T17:57:05.625Z,98485.19
2022-11-18T18:03:07.510Z,98496.94
2022-11-18T18:09:09.481Z,98505.56
2022-11-18T18:15:11.363Z,98515.50
2022-11-18T18:21:13.325Z,98525.25
2022-11-18T18:27:15.239Z,98526.56
2022-11-18T18:33:17.128Z,98543.06
2022-11-18T18:39:18.995Z,98553.66
2022-11-18T18:45:39.584Z,98563.75
2022-11-18T18:51:48.886Z,98559.25
2022-11-18T18:57:51.304Z,98563.22
2022-11-18T19:04:00.012Z,98562.41
2022-11-18T19:10:02.073Z,98568.38
2022-11-18T19:16:07.624Z,98581.94
2022-11-18T19:22:12.372Z,98578.09
2022-11-18T19:28:14.271Z,98584.03
2022-11-18T19:34:16.572Z,98594.25
2022-11-18T19:40:18.806Z,98607.00
2022-11-18T19:46:21.852Z,98606.31
2022-11-18T19:52:23.875Z,98616.59
2022-11-18T19:58:26.889Z,98618.03
2022-11-18T20:04:28.937Z,98621.97
2022-11-18T20:10:31.517Z,98618.78
2022-11-18T20:16:33.714Z,98629.63
2022-11-18T20:22:35.660Z,98638.03
2022-11-18T20:28:41.009Z,98642.97
2022-11-18T20:34:42.925Z,98652.72
2022-11-18T20:40:44.823Z,98644.84
2022-11-18T20:46:46.692Z,98646.78
2022-11-18T20:52:48.574Z,98648.94
2022-11-18T20:58:51.012Z,98649.25
2022-11-18T21:04:52.901Z,98655.41
2022-11-18T21:10:54.784Z,98656.03
2022-11-18T21:17:00.818Z,98659.50
2022-11-18T21:23:02.725Z,98667.22
2022-11-18T21:29:07.984Z,98676.66
2022-11-18T21:35:09.861Z,98666.06
2022-11-18T21:41:12.629Z,98671.88
2022-11-18T21:47:14.543Z,98673.53
2022-11-18T21:53:16.483Z,98682.72
2022-11-18T21:59:18.823Z,98682.34
2022-11-18T22:05:21.054Z,98691.06
2022-11-18T22:11:23.447Z,98703.78
2022-11-18T22:17:25.376Z,98705.44
2022-11-18T22:23:29.204Z,98704.94
2022-11-18T22:29:31.120Z,98709.13
2022-11-18T22:35:32.983Z,98712.16
2022-11-18T22:41:53.243Z,98717.78
2022-11-18T22:47:55.114Z,98718.78
2022-11-18T22:54:22.997Z,98723.00
2022-11-18T23:00:18.996Z,98735.84
2022-11-18T23:06:21.008Z,98732.66
2022-11-18T23:12:44.931Z,98737.88
2022-11-18T23:18:50.103Z,98741.41
2022-11-18T23:24:51.984Z,98757.41
2022-11-18T23:31:02.641Z,98773.91
2022-11-18T23:37:04.516Z,98769.88
2022-11-18T23:43:06.399Z,98771.19
2022-11-18T23:49:09.606Z,98778.81
2022-11-18T23:55:11.580Z,98788.00
